Time;durP1;ratioP1;P1;durP2;ratioP2;P2;SDS_P1;SDS_P2;PMS_P1;PMS_P2;Temp;Humidity;BMP_temperature;BMP_pressure;BME280_temperature;BME280_humidity;BME280_pressure;Samples;Min_cycle;Max_cycle;Signal;HPM_P1;HPM_P2
2023/08/26 00:00:22;;;;;;;10.40;7.00;;;;;;;21.03;63.41;99665.41;105313;1253;73810;-70
2023/08/26 00:02:49;;;;;;;11.70;6.20;;;;;;;21.03;62.73;99664.55;105410;1259;69384;-73
2023/08/26 00:05:17;;;;;;;10.50;7.30;;;;;;;21.03;62.34;99668.71;105633;1257;72078;-72
2023/08/26 00:07:44;;;;;;;11.50;7.20;;;;;;;21.04;62.06;99667.20;105335;1253;60559;-70
2023/08/26 00:10:12;;;;;;;9.10;6.50;;;;;;;21.04;61.75;99670.90;105358;1253;60549;-69
2023/08/26 00:12:39;;;;;;;9.00;5.70;;;;;;;21.05;61.12;99670.05;105389;1254;72932;-67
2023/08/26 00:15:07;;;;;;;9.60;6.90;;;;;;;21.08;60.86;99673.23;105369;1253;70006;-68
2023/08/26 00:17:34;;;;;;;11.60;7.10;;;;;;;21.11;60.80;99674.15;105601;1253;72503;-70
2023/08/26 00:20:05;;;;;;;9.10;6.20;;;;;;;21.13;60.73;99672.54;105435;1253;60489;-69
2023/08/26 00:22:34;;;;;;;11.60;6.60;;;;;;;21.14;60.40;99670.30;105546;1255;60518;-68
2023/08/26 00:25:01;;;;;;;8.10;5.70;;;;;;;21.17;60.36;99673.86;105616;1253;73793;-67
2023/08/26 00:27:29;;;;;;;9.70;6.40;;;;;;;21.20;59.84;99670.52;105367;1260;70303;-70
2023/08/26 00:29:56;;;;;;;9.40;6.70;;;;;;;21.24;59.27;99666.11;105194;1257;73110;-70
2023/08/26 00:32:24;;;;;;;13.60;8.20;;;;;;;21.29;58.76;99662.35;105394;1254;60549;-70
2023/08/26 00:34:52;;;;;;;12.20;9.00;;;;;;;21.32;58.29;99669.05;105477;1253;60552;-70
2023/08/26 00:37:19;;;;;;;14.80;7.60;;;;;;;21.34;57.63;99667.71;105315;1253;72682;-68
2023/08/26 00:39:47;;;;;;;12.40;7.70;;;;;;;21.37;57.37;99664.38;105243;1253;70446;-71
2023/08/26 00:42:14;;;;;;;13.30;7.60;;;;;;;21.40;57.21;99666.52;105362;1254;72659;-69
2023/08/26 00:44:41;;;;;;;10.60;7.50;;;;;;;21.42;57.20;99670.30;105138;1262;61120;-69
2023/08/26 00:47:09;;;;;;;11.60;7.80;;;;;;;21.43;57.15;99665.67;105115;1253;60440;-71
2023/08/26 00:49:36;;;;;;;12.20;6.70;;;;;;;21.44;56.92;99664.84;105122;1253;74307;-70
2023/08/26 00:52:04;;;;;;;10.00;6.80;;;;;;;21.45;56.82;99666.11;105381;1262;69435;-70
2023/08/26 00:54:35;;;;;;;11.90;6.20;;;;;;;21.45;56.40;99667.95;105366;1256;72698;-71
2023/08/26 00:57:04;;;;;;;10.10;7.10;;;;;;;21.46;56.43;99669.96;105497;1256;60593;-69
2023/08/26 00:59:32;;;;;;;9.90;6.30;;;;;;;21.46;56.41;99667.67;105506;1258;60368;-70
2023/08/26 01:02:00;;;;;;;11.90;7.00;;;;;;;21.44;56.43;99660.32;105386;1254;72718;-70
2023/08/26 01:04:28;;;;;;;8.10;5.60;;;;;;;21.43;56.67;99658.02;105510;1253;68622;-70
2023/08/26 01:06:56;;;;;;;10.40;5.50;;;;;;;21.40;56.44;99654.74;105099;1257;71569;-70
2023/08/26 01:09:23;;;;;;;8.60;5.10;;;;;;;21.40;56.33;99655.33;105164;1253;60530;-68
2023/08/26 01:11:59;;;;;;;7.10;5.40;;;;;;;21.41;56.28;99653.19;105291;1259;60510;-70
2023/08/26 01:14:32;;;;;;;7.80;5.40;;;;;;;21.43;56.25;99653.08;105357;1254;73953;-69
2023/08/26 01:16:59;;;;;;;6.60;5.20;;;;;;;21.46;56.14;99656.83;105343;1253;70192;-70
2023/08/26 01:19:32;;;;;;;11.60;6.00;;;;;;;21.48;56.28;99655.78;105334;1257;71569;-71
2023/08/26 01:22:05;;;;;;;8.70;6.10;;;;;;;21.50;55.97;99656.20;105103;1256;60468;-70
2023/08/26 01:24:33;;;;;;;;;;;;;;;21.52;56.37;99656.52;105446;1259;60420;-72
2023/08/26 01:27:01;;;;;;;11.70;7.10;;;;;;;21.53;57.16;99654.69;105327;1258;73960;-69
2023/08/26 01:29:29;;;;;;;9.90;6.10;;;;;;;21.52;56.90;99657.38;105376;1253;70707;-68
2023/08/26 01:32:37;;;;;;;6.90;5.30;;;;;;;21.50;57.08;99655.60;105539;1260;72699;-69
2023/08/26 01:35:08;;;;;;;9.50;5.90;;;;;;;21.50;57.09;99649.16;105194;1260;60557;-68
2023/08/26 01:37:37;;;;;;;11.00;6.00;;;;;;;21.49;56.71;99646.55;105108;1261;60014;-69
2023/08/26 01:40:06;;;;;;;6.60;4.70;;;;;;;21.50;56.55;99646.25;105473;1253;72654;-70
2023/08/26 01:42:35;;;;;;;4.90;3.80;;;;;;;21.51;55.97;99643.19;105387;1253;69979;-68
2023/08/26 01:45:05;;;;;;;8.80;5.00;;;;;;;21.53;55.42;99644.58;105440;1256;72773;-69
2023/08/26 01:47:32;;;;;;;8.10;5.00;;;;;;;21.55;55.02;99641.33;105097;1259;60499;-67
2023/08/26 01:50:00;;;;;;;6.30;4.50;;;;;;;21.57;55.03;99641.89;105283;1256;60457;-67
2023/08/26 01:52:27;;;;;;;6.60;4.90;;;;;;;21.60;54.65;99643.99;105152;1258;73957;-70
2023/08/26 01:54:55;;;;;;;8.40;4.90;;;;;;;21.62;54.57;99644.62;105194;1255;70623;-69
2023/08/26 01:57:23;;;;;;;5.80;4.60;;;;;;;21.63;54.67;99646.59;105157;1257;73035;-69
2023/08/26 01:59:51;;;;;;;7.80;5.50;;;;;;;21.63;54.74;99642.00;105344;1257;60552;-69
2023/08/26 02:02:19;;;;;;;5.70;4.60;;;;;;;21.64;54.84;99641.69;105244;1253;60550;-69
2023/08/26 02:04:46;;;;;;;6.30;4.40;;;;;;;21.64;54.84;99638.40;105439;1258;73766;-71
2023/08/26 02:07:14;;;;;;;9.00;5.10;;;;;;;21.65;55.01;99634.73;105435;1253;69510;-68
2023/08/26 02:09:41;;;;;;;11.30;4.60;;;;;;;21.64;55.15;99635.73;105490;1253;70681;-69
2023/08/26 02:12:09;;;;;;;7.60;4.80;;;;;;;21.64;55.20;99637.80;105283;1255;60463;-70
2023/08/26 02:14:36;;;;;;;5.70;4.40;;;;;;;21.63;55.28;99633.55;105282;1258;60355;-70
2023/08/26 02:17:04;;;;;;;6.30;4.50;;;;;;;21.62;55.24;99636.95;105469;1253;73833;-68
2023/08/26 02:19:31;;;;;;;5.70;5.00;;;;;;;21.62;55.31;99636.74;105353;1253;69059;-69
2023/08/26 02:22:00;;;;;;;8.80;4.50;;;;;;;21.61;55.30;99635.10;105134;1253;72685;-70
2023/08/26 02:24:29;;;;;;;6.30;4.90;;;;;;;21.62;55.30;99636.36;105299;1259;60472;-70
2023/08/26 02:26:56;;;;;;;7.80;5.20;;;;;;;21.62;55.40;99642.96;105286;1260;60343;-69
2023/08/26 02:29:24;;;;;;;5.40;4.50;;;;;;;21.62;55.42;99641.23;105253;1253;73875;-70
2023/08/26 02:31:51;;;;;;;8.80;5.00;;;;;;;21.63;55.38;99636.86;105289;1253;69907;-70
2023/08/26 02:34:18;;;;;;;8.90;4.60;;;;;;;21.64;55.38;99634.05;105280;1256;72718;-71
2023/08/26 02:36:46;;;;;;;6.80;5.00;;;;;;;21.64;55.36;99636.50;105460;1257;60549;-71
2023/08/26 02:39:15;;;;;;;6.50;5.00;;;;;;;21.65;55.34;99637.70;105486;1258;60383;-70
2023/08/26 02:41:42;;;;;;;7.00;5.10;;;;;;;21.64;55.23;99637.75;105338;1254;73784;-69
2023/08/26 02:44:09;;;;;;;6.40;4.50;;;;;;;21.64;55.35;99633.26;105310;1256;68895;-68
2023/08/26 02:46:37;;;;;;;6.50;4.80;;;;;;;21.64;55.59;99628.39;105552;1256;72456;-69
2023/08/26 02:49:04;;;;;;;7.20;5.10;;;;;;;21.63;55.60;99622.05;105435;1256;60499;-71
2023/08/26 02:51:32;;;;;;;7.90;5.20;;;;;;;21.63;55.81;99623.89;105521;1258;60412;-72
2023/08/26 02:53:59;;;;;;;7.40;4.90;;;;;;;21.62;55.77;99625.39;105393;1256;73824;-70
2023/08/26 02:56:26;;;;;;;7.40;5.20;;;;;;;21.62;55.86;99628.64;105464;1259;68687;-69
2023/08/26 02:58:54;;;;;;;8.20;5.70;;;;;;;21.63;55.95;99629.98;105389;1256;71989;-67
2023/08/26 03:01:21;;;;;;;7.40;5.60;;;;;;;21.63;56.12;99630.80;105106;1254;60471;-70
2023/08/26 03:03:49;;;;;;;7.80;5.70;;;;;;;21.63;55.99;99631.56;105279;1259;60416;-69
2023/08/26 03:06:17;;;;;;;7.10;5.70;;;;;;;21.64;56.14;99632.39;105395;1259;73656;-69
2023/08/26 03:08:44;;;;;;;7.80;4.80;;;;;;;21.65;55.95;99631.16;105155;1253;71330;-70
2023/08/26 03:11:13;;;;;;;5.70;4.50;;;;;;;21.65;55.65;99634.79;105464;1257;72442;-69
2023/08/26 03:13:42;;;;;;;6.90;5.00;;;;;;;21.67;55.54;99632.82;105525;1258;60989;-71
2023/08/26 03:16:10;;;;;;;6.10;4.10;;;;;;;21.68;55.27;99636.09;105263;1254;60838;-71
2023/08/26 03:18:41;;;;;;;7.40;4.30;;;;;;;21.70;55.19;99635.79;105491;1254;72665;-70
2023/08/26 03:21:09;;;;;;;11.40;4.80;;;;;;;21.70;54.94;99637.27;105421;1254;69421;-69
2023/08/26 03:23:36;;;;;;;7.10;4.90;;;;;;;21.72;54.86;99639.40;105359;1260;71214;-71
2023/08/26 03:26:05;;;;;;;8.00;4.50;;;;;;;21.73;54.67;99643.42;105296;1256;60445;-71
2023/08/26 03:28:33;;;;;;;7.60;4.40;;;;;;;21.76;54.68;99640.23;105282;1254;60497;-70
2023/08/26 03:31:05;;;;;;;7.40;4.60;;;;;;;21.79;54.56;99637.15;105220;1253;74079;-71
2023/08/26 03:33:34;;;;;;;7.70;4.30;;;;;;;21.80;54.49;99637.98;105465;1258;69949;-70
2023/08/26 03:36:05;;;;;;;6.30;4.50;;;;;;;21.82;54.35;99640.16;105436;1253;71911;-68
2023/08/26 03:38:34;;;;;;;5.20;4.10;;;;;;;21.83;54.50;99643.08;105343;1259;60422;-69
2023/08/26 03:41:05;;;;;;;13.60;5.10;;;;;;;21.84;54.48;99641.32;105263;1254;60455;-68
2023/08/26 03:43:33;;;;;;;9.10;4.60;;;;;;;21.85;54.75;99638.60;105283;1258;73793;-70
2023/08/26 03:46:00;;;;;;;5.60;4.50;;;;;;;21.86;54.58;99636.73;105306;1259;69051;-71
2023/08/26 03:48:28;;;;;;;6.20;5.20;;;;;;;21.88;54.64;99631.98;105101;1261;71587;-68
2023/08/26 03:50:57;;;;;;;7.20;4.20;;;;;;;21.89;54.56;99633.25;105379;1259;60849;-67
2023/08/26 03:53:24;;;;;;;7.90;5.40;;;;;;;21.90;54.74;99630.77;105319;1256;60478;-69
2023/08/26 03:55:52;;;;;;;8.30;4.80;;;;;;;21.90;54.74;99632.61;105304;1254;72619;-71
2023/08/26 03:58:19;;;;;;;8.20;4.90;;;;;;;21.89;54.70;99629.95;105190;1259;70565;-70
2023/08/26 04:00:48;;;;;;;6.30;4.60;;;;;;;21.90;54.72;99624.27;105421;1262;72557;-70
2023/08/26 04:03:15;;;;;;;9.10;5.00;;;;;;;21.90;54.62;99616.62;105237;1254;60806;-70
2023/08/26 04:05:43;;;;;;;6.00;5.20;;;;;;;21.94;54.61;99613.16;105322;1260;61197;-69
2023/08/26 04:08:10;;;;;;;7.40;5.30;;;;;;;22.00;54.66;99607.57;105262;1259;73875;-69
2023/08/26 04:10:38;;;;;;;5.90;4.70;;;;;;;22.12;54.51;99607.21;105470;1258;68913;-70
2023/08/26 04:13:22;;;;;;;8.40;4.80;;;;;;;22.24;54.53;99603.13;105220;1260;71882;-69
2023/08/26 04:15:49;;;;;;;7.10;5.40;;;;;;;22.33;54.56;99604.52;105426;1260;60437;-71
2023/08/26 04:18:17;;;;;;;6.30;5.30;;;;;;;22.40;54.40;99604.02;105399;1254;60456;-70
2023/08/26 04:20:44;;;;;;;8.80;5.30;;;;;;;22.45;54.33;99603.61;105361;1260;73835;-70
2023/08/26 04:23:11;;;;;;;8.70;5.10;;;;;;;22.49;54.35;99595.33;105415;1260;70358;-69
2023/08/26 04:25:40;;;;;;;8.00;5.10;;;;;;;22.49;54.48;99596.27;105426;1257;72760;-71
2023/08/26 04:28:07;;;;;;;7.50;4.80;;;;;;;22.50;54.26;99599.58;105434;1254;60490;-71
2023/08/26 04:30:36;;;;;;;6.80;5.30;;;;;;;22.51;54.32;99604.08;105327;1256;60547;-69
2023/08/26 04:33:04;;;;;;;5.30;4.40;;;;;;;22.52;54.12;99602.31;105507;1254;72629;-70
2023/08/26 04:35:34;;;;;;;6.00;4.60;;;;;;;22.52;54.15;99602.36;105430;1253;70633;-71
2023/08/26 04:38:03;;;;;;;10.10;5.00;;;;;;;22.51;54.25;99604.73;105401;1262;70255;-71
2023/08/26 04:40:30;;;;;;;5.90;4.70;;;;;;;22.49;53.95;99605.02;105413;1259;60431;-71
2023/08/26 04:42:58;;;;;;;7.90;5.70;;;;;;;22.48;54.12;99602.67;105575;1258;60786;-71
2023/08/26 04:45:25;;;;;;;6.40;4.30;;;;;;;22.49;54.26;99610.64;105374;1260;73927;-71
2023/08/26 04:47:52;;;;;;;6.20;4.50;;;;;;;22.50;54.09;99604.49;105222;1261;69011;-70
2023/08/26 04:50:20;;;;;;;8.10;5.30;;;;;;;22.52;53.74;99599.27;105247;1253;72181;-68
2023/08/26 04:52:48;;;;;;;7.60;5.40;;;;;;;22.52;53.96;99596.40;105340;1257;60748;-68
2023/08/26 04:55:15;;;;;;;6.30;4.70;;;;;;;22.52;54.04;99596.66;105280;1259;60558;-74
2023/08/26 04:57:43;;;;;;;8.70;5.30;;;;;;;22.52;54.00;99600.79;105559;1258;72668;-73
2023/08/26 05:00:11;;;;;;;7.60;4.70;;;;;;;22.53;54.13;99598.95;105385;1254;70153;-72
2023/08/26 05:02:39;;;;;;;9.20;5.30;;;;;;;22.56;54.01;99597.95;105427;1258;72489;-72
2023/08/26 05:05:07;;;;;;;9.30;5.20;;;;;;;22.59;53.91;99594.88;105756;1258;60592;-73
2023/08/26 05:07:35;;;;;;;8.10;5.10;;;;;;;22.61;53.82;99597.77;105509;1254;60760;-73
2023/08/26 05:10:06;;;;;;;8.40;4.70;;;;;;;22.63;53.74;99594.91;105179;1260;73832;-73
2023/08/26 05:12:34;;;;;;;6.20;5.20;;;;;;;22.66;53.70;99589.65;105329;1262;69340;-73
2023/08/26 05:15:04;;;;;;;6.60;4.90;;;;;;;22.73;53.73;99590.06;105568;1260;71183;-73
2023/08/26 05:17:31;;;;;;;7.60;4.90;;;;;;;22.79;53.47;99591.39;105359;1257;60505;-73
2023/08/26 05:19:59;;;;;;;11.30;5.60;;;;;;;22.87;53.41;99590.39;105406;1257;61942;-72
2023/08/26 05:22:26;;;;;;;5.40;4.80;;;;;;;22.94;53.06;99592.96;105307;1259;71622;-71
2023/08/26 05:24:54;;;;;;;6.90;5.20;;;;;;;23.01;53.01;99588.33;105460;1261;70344;-72
2023/08/26 05:27:22;;;;;;;6.90;5.20;;;;;;;23.07;52.68;99584.15;105289;1259;71540;-73
2023/08/26 05:29:50;;;;;;;7.40;4.60;;;;;;;23.13;52.69;99577.71;105268;1259;60547;-75
2023/08/26 05:32:17;;;;;;;6.50;4.90;;;;;;;23.18;52.57;99581.55;105386;1260;61166;-76
2023/08/26 05:34:47;;;;;;;7.70;5.10;;;;;;;23.22;52.50;99582.46;105370;1259;71908;-74
2023/08/26 05:37:14;;;;;;;5.30;4.80;;;;;;;23.24;52.31;99579.02;105423;1259;70325;-72
2023/08/26 05:39:43;;;;;;;7.40;4.80;;;;;;;23.27;52.23;99578.89;105578;1258;73693;-75
2023/08/26 05:42:10;;;;;;;5.60;4.70;;;;;;;23.30;52.28;99579.84;105399;1258;60442;-72
2023/08/26 05:44:39;;;;;;;8.00;4.70;;;;;;;23.35;52.18;99582.27;105403;1259;60873;-73
2023/08/26 05:47:06;;;;;;;8.10;4.70;;;;;;;23.43;52.40;99580.94;105232;1260;60453;-74
2023/08/26 05:49:34;;;;;;;9.80;5.10;;;;;;;23.49;52.10;99582.84;105155;1260;68883;-74
2023/08/26 05:52:02;;;;;;;9.80;5.00;;;;;;;23.56;51.92;99584.02;105324;1257;71069;-75
2023/08/26 05:54:30;;;;;;;11.10;5.10;;;;;;;23.64;51.61;99585.63;105493;1259;60669;-75
2023/08/26 05:56:57;;;;;;;8.20;5.20;;;;;;;23.73;51.04;99582.86;105482;1260;60553;-75
2023/08/26 05:59:25;;;;;;;8.10;5.50;;;;;;;23.85;50.94;99577.36;105436;1258;73392;-75
2023/08/26 06:01:53;;;;;;;6.90;4.80;;;;;;;23.99;50.79;99574.70;105345;1260;69052;-73
2023/08/26 06:04:20;;;;;;;7.90;4.70;;;;;;;24.12;50.48;99571.48;105592;1260;73104;-74
2023/08/26 06:06:47;;;;;;;7.30;5.40;;;;;;;24.27;50.21;99574.71;105208;1260;60544;-74
2023/08/26 06:09:15;;;;;;;11.70;4.80;;;;;;;24.42;49.92;99575.11;105540;1262;60386;-75
2023/08/26 06:11:42;;;;;;;7.10;4.90;;;;;;;24.58;49.42;99569.30;105203;1259;73793;-74
2023/08/26 06:14:10;;;;;;;8.00;4.50;;;;;;;24.76;49.39;99567.86;105397;1260;68828;-73
2023/08/26 06:16:38;;;;;;;6.20;4.50;;;;;;;24.95;48.79;99560.37;105125;1259;72878;-72
2023/08/26 06:19:06;;;;;;;8.20;4.70;;;;;;;25.11;48.46;99557.15;105306;1264;60550;-72
2023/08/26 06:21:33;;;;;;;9.70;4.90;;;;;;;25.25;47.84;99560.08;105271;1253;60551;-73
2023/08/26 06:24:01;;;;;;;7.20;4.70;;;;;;;25.35;47.69;99562.65;105259;1254;72645;-72
2023/08/26 06:26:30;;;;;;;7.80;4.70;;;;;;;25.45;47.28;99563.33;105313;1260;69693;-72
2023/08/26 06:28:57;;;;;;;7.00;4.10;;;;;;;25.54;47.18;99565.98;105156;1260;72872;-73
2023/08/26 06:31:26;;;;;;;6.10;4.20;;;;;;;25.64;46.90;99567.94;105482;1259;60575;-73
2023/08/26 06:33:54;;;;;;;7.60;4.80;;;;;;;25.72;46.66;99564.46;105181;1263;60492;-70
2023/08/26 06:36:21;;;;;;;6.20;4.30;;;;;;;25.78;46.95;99564.58;105391;1259;73929;-73
2023/08/26 06:38:51;;;;;;;8.00;4.80;;;;;;;25.83;46.64;99563.48;105508;1260;70273;-72
2023/08/26 06:41:18;;;;;;;7.50;4.40;;;;;;;25.86;46.54;99556.19;105297;1255;72764;-73
2023/08/26 06:43:46;;;;;;;6.90;4.30;;;;;;;25.89;46.64;99562.83;105270;1256;60536;-71
2023/08/26 06:46:20;;;;;;;7.70;4.60;;;;;;;25.95;46.47;99561.54;105254;1268;60415;-70
2023/08/26 06:48:48;;;;;;;5.90;4.40;;;;;;;26.00;46.35;99566.32;105356;1259;73275;-70
2023/08/26 06:51:16;;;;;;;7.00;4.90;;;;;;;26.03;46.00;99569.25;105258;1259;70287;-72
2023/08/26 06:53:43;;;;;;;10.20;4.40;;;;;;;26.04;45.98;99570.39;105571;1254;71077;-73
2023/08/26 06:56:11;;;;;;;6.50;4.20;;;;;;;26.02;46.49;99568.33;105454;1262;60709;-73
2023/08/26 06:58:38;;;;;;;10.50;4.60;;;;;;;26.07;46.41;99568.88;105429;1255;60621;-73
2023/08/26 07:01:05;;;;;;;8.10;4.90;;;;;;;26.15;46.69;99572.83;105427;1254;73798;-72
2023/08/26 07:03:33;;;;;;;8.70;5.00;;;;;;;26.24;46.52;99573.51;105391;1254;70004;-70
2023/08/26 07:06:00;;;;;;;7.00;5.10;;;;;;;26.30;46.73;99571.05;105191;1258;72698;-71
2023/08/26 07:08:28;;;;;;;9.70;5.20;;;;;;;26.41;46.59;99577.17;105366;1259;60543;-72
2023/08/26 07:10:55;;;;;;;7.90;5.00;;;;;;;26.51;46.53;99582.75;105303;1257;61281;-70
2023/08/26 07:13:22;;;;;;;8.00;5.60;;;;;;;26.55;46.46;99579.25;105287;1254;73815;-72
2023/08/26 07:15:50;;;;;;;10.20;6.30;;;;;;;26.52;46.53;99576.44;105200;1257;72018;-72
2023/08/26 07:18:17;;;;;;;10.80;6.00;;;;;;;26.49;46.73;99579.48;105207;1258;72445;-72
2023/08/26 07:20:46;;;;;;;10.80;5.80;;;;;;;26.43;46.75;99581.09;105048;1259;60459;-73
2023/08/26 07:23:14;;;;;;;6.80;5.30;;;;;;;26.40;46.95;99581.59;105342;1252;61051;-72
2023/08/26 07:25:41;;;;;;;8.20;5.40;;;;;;;26.37;47.40;99580.18;105431;1260;72607;-70
2023/08/26 07:28:09;;;;;;;6.80;5.10;;;;;;;26.34;47.31;99581.23;105276;1260;70674;-72
2023/08/26 07:30:38;;;;;;;7.50;5.10;;;;;;;26.35;47.37;99590.27;105337;1258;72883;-71
2023/08/26 07:33:06;;;;;;;9.30;5.10;;;;;;;26.38;47.28;99587.64;105306;1260;61054;-71
2023/08/26 07:35:33;;;;;;;7.20;4.90;;;;;;;26.40;47.36;99592.64;105347;1261;60377;-73
2023/08/26 07:38:00;;;;;;;7.30;5.20;;;;;;;26.42;47.02;99592.75;105392;1254;74143;-70
2023/08/26 07:40:29;;;;;;;7.80;5.20;;;;;;;26.39;46.54;99587.42;105507;1258;69256;-71
2023/08/26 07:42:56;;;;;;;7.50;4.80;;;;;;;26.38;46.74;99585.80;105388;1258;72714;-74
2023/08/26 07:45:23;;;;;;;6.90;4.70;;;;;;;26.42;46.73;99585.51;105333;1254;60547;-71
2023/08/26 07:47:51;;;;;;;6.20;4.40;;;;;;;26.49;46.72;99581.78;105367;1255;291418;-71
2023/08/26 07:51:29;;;;;;;6.10;4.80;;;;;;;26.63;46.72;99570.42;102241;1297;600035;-74
2023/08/26 07:53:56;;;;;;;7.40;5.60;;;;;;;26.65;46.55;99569.21;104444;1273;59583;-71
2023/08/26 07:56:24;;;;;;;7.20;5.10;;;;;;;26.72;46.70;99559.77;104518;1267;60062;-71
2023/08/26 07:58:51;;;;;;;9.10;5.10;;;;;;;26.80;46.07;99572.05;104499;1269;72684;-72
2023/08/26 08:01:18;;;;;;;7.60;4.70;;;;;;;26.90;45.64;99572.31;104512;1268;69012;-71
2023/08/26 08:03:46;;;;;;;13.30;5.10;;;;;;;27.02;45.25;99572.27;104621;1273;71338;-72
2023/08/26 08:06:13;;;;;;;6.20;4.50;;;;;;;27.18;44.87;99563.94;104474;1267;177271;-71
2023/08/26 08:08:40;;;;;;;9.70;4.80;;;;;;;27.39;44.31;99564.73;104691;1267;60016;-71
2023/08/26 08:11:08;;;;;;;6.00;4.40;;;;;;;27.55;44.05;99558.30;104590;1265;71918;-73
2023/08/26 08:13:35;;;;;;;6.80;5.10;;;;;;;27.67;43.36;99556.56;104682;1265;70188;-72
2023/08/26 08:16:03;;;;;;;6.40;4.90;;;;;;;27.76;43.34;99555.01;104708;1269;72946;-71
2023/08/26 08:18:30;;;;;;;5.10;4.40;;;;;;;27.87;43.79;99552.08;104785;1271;60228;-73
2023/08/26 08:20:57;;;;;;;5.90;4.50;;;;;;;28.05;43.51;99553.62;104779;1265;60026;-73
2023/08/26 08:23:25;;;;;;;6.10;5.20;;;;;;;28.23;43.53;99552.88;104767;1270;72835;-73
2023/08/26 08:25:52;;;;;;;12.10;4.90;;;;;;;28.39;43.28;99549.46;104810;1264;69971;-72
2023/08/26 08:28:20;;;;;;;7.00;5.10;;;;;;;28.53;43.59;99558.23;104781;1264;73242;-73
2023/08/26 08:30:47;;;;;;;6.70;5.00;;;;;;;28.69;43.26;99553.09;104790;1265;60135;-71
2023/08/26 08:33:17;;;;;;;7.30;4.70;;;;;;;28.79;42.91;99550.42;104677;1264;59869;-72
2023/08/26 08:35:45;;;;;;;7.20;5.10;;;;;;;28.87;42.99;99546.98;104762;1268;73253;-72
2023/08/26 08:38:12;;;;;;;7.90;5.00;;;;;;;28.96;43.21;99548.55;104899;1264;70282;-73
2023/08/26 08:40:41;;;;;;;5.70;4.80;;;;;;;29.09;43.22;99543.40;105273;1261;74978;-74
2023/08/26 08:43:08;;;;;;;7.60;4.90;;;;;;;29.24;42.95;99545.66;105221;1260;59697;-76
2023/08/26 08:45:36;;;;;;;6.40;4.90;;;;;;;29.41;42.93;99541.68;105108;1257;60333;-72
2023/08/26 08:48:03;;;;;;;8.80;4.80;;;;;;;29.57;42.70;99539.98;105051;1258;71349;-73
2023/08/26 08:50:31;;;;;;;10.70;5.00;;;;;;;29.73;42.89;99542.27;105215;1256;70356;-73
2023/08/26 08:52:59;;;;;;;7.50;4.80;;;;;;;29.89;42.24;99540.77;105102;1256;72615;-72
2023/08/26 08:55:26;;;;;;;6.50;5.00;;;;;;;30.01;41.88;99538.86;104953;1264;59722;-73
2023/08/26 08:57:54;;;;;;;6.50;4.80;;;;;;;30.08;41.30;99528.27;105266;1254;60044;-73
2023/08/26 09:00:23;;;;;;;6.00;4.80;;;;;;;30.15;41.74;99526.99;105139;1259;73042;-74
2023/08/26 09:02:51;;;;;;;7.60;4.90;;;;;;;30.27;41.77;99523.92;105207;1256;70461;-73
2023/08/26 09:05:19;;;;;;;10.10;4.90;;;;;;;30.44;41.50;99523.53;105535;1259;71186;-74
2023/08/26 09:07:46;;;;;;;8.50;4.50;;;;;;;30.66;41.16;99526.52;105041;1260;60175;-73
2023/08/26 09:10:14;;;;;;;6.20;4.60;;;;;;;30.95;41.27;99526.23;105025;1256;60055;-74
2023/08/26 09:12:41;;;;;;;7.30;5.20;;;;;;;31.41;40.80;99529.23;105157;1256;73011;-73
2023/08/26 09:15:09;;;;;;;6.80;4.80;;;;;;;31.95;40.31;99519.20;105323;1254;70205;-73
2023/08/26 09:17:36;;;;;;;5.80;4.90;;;;;;;32.53;39.48;99518.75;105219;1256;72666;-73
2023/08/26 09:20:05;;;;;;;6.90;5.30;;;;;;;33.10;38.78;99512.59;105264;1259;60040;-73
2023/08/26 09:22:32;;;;;;;7.50;5.40;;;;;;;33.63;38.42;99516.66;105582;1260;60172;-72
2023/08/26 09:25:01;;;;;;;7.00;5.20;;;;;;;34.16;37.95;99512.77;105378;1255;71869;-73
2023/08/26 09:27:29;;;;;;;5.40;4.70;;;;;;;34.78;37.60;99503.63;105423;1256;70434;-72
2023/08/26 09:29:56;;;;;;;8.40;5.00;;;;;;;35.30;36.89;99492.63;105135;1261;63772;-73
2023/08/26 09:32:37;;;;;;;5.00;4.50;;;;;;;35.70;36.25;99493.73;105191;1256;59722;-73
2023/08/26 09:35:16;;;;;;;5.80;4.60;;;;;;;35.92;36.00;99487.45;105467;1256;59793;-73
2023/08/26 09:38:04;;;;;;;7.20;5.60;;;;;;;36.08;35.93;99486.70;105386;1254;62903;-71
2023/08/26 09:40:32;;;;;;;6.10;4.90;;;;;;;36.14;35.98;99480.89;105309;1254;61362;-72
2023/08/26 09:43:03;;;;;;;9.20;4.90;;;;;;;36.12;36.08;99481.61;105534;1258;62848;-74
2023/08/26 09:45:38;;;;;;;7.80;4.80;;;;;;;35.98;36.32;99482.66;105413;1256;60773;-73
2023/08/26 09:48:06;;;;;;;7.10;5.40;;;;;;;35.90;36.64;99483.90;105568;1255;60139;-73
2023/08/26 09:50:33;;;;;;;7.20;5.50;;;;;;;35.93;36.69;99489.92;105816;1257;64195;-74
2023/08/26 09:53:01;;;;;;;11.50;5.80;;;;;;;36.09;36.17;99490.63;105638;1254;61568;-73
2023/08/26 09:55:28;;;;;;;5.90;5.30;;;;;;;36.34;35.87;99489.13;105404;1256;63732;-73
2023/08/26 09:57:57;;;;;;;7.90;5.20;;;;;;;36.67;35.25;99487.94;105161;1256;60286;-73
2023/08/26 10:00:25;;;;;;;6.30;5.00;;;;;;;36.81;34.68;99482.49;105194;1256;59599;-74
2023/08/26 10:02:54;;;;;;;5.60;5.00;;;;;;;36.69;34.79;99491.09;105341;1258;64190;-75
2023/08/26 10:05:22;;;;;;;5.50;5.00;;;;;;;36.43;35.30;99489.55;105411;1256;61484;-73
2023/08/26 10:07:50;;;;;;;7.00;5.40;;;;;;;35.91;34.97;99487.41;105209;1256;63742;-73
2023/08/26 10:10:24;;;;;;;6.40;5.90;;;;;;;35.28;36.41;99493.45;105336;1254;59671;-73
2023/08/26 10:12:53;;;;;;;8.70;6.10;;;;;;;34.82;37.38;99500.81;105291;1261;59577;-74
2023/08/26 10:15:21;;;;;;;10.00;5.80;;;;;;;34.35;38.16;99496.30;105498;1256;62864;-72
2023/08/26 10:17:49;;;;;;;7.50;6.60;;;;;;;33.87;39.15;99493.00;105104;1254;69939;-72
2023/08/26 10:20:17;;;;;;;7.10;6.30;;;;;;;33.44;39.58;99499.16;105612;1256;72478;-74
2023/08/26 10:22:44;;;;;;;10.80;6.40;;;;;;;32.90;39.91;99501.40;105324;1258;60131;-75
2023/08/26 10:25:12;;;;;;;10.40;7.00;;;;;;;32.37;41.13;99516.58;105177;1257;59702;-71
2023/08/26 10:27:39;;;;;;;7.40;5.60;;;;;;;31.93;42.41;99509.85;105420;1259;73201;-73
2023/08/26 10:30:07;;;;;;;8.00;7.00;;;;;;;31.75;42.97;99506.82;105451;1256;70126;-71
2023/08/26 10:32:44;;;;;;;8.10;6.80;;;;;;;31.79;43.05;99506.00;105421;1259;72912;-70
2023/08/26 10:35:13;;;;;;;7.20;6.30;;;;;;;31.86;43.23;99513.17;105378;1256;60494;-72
2023/08/26 10:37:40;;;;;;;9.20;6.50;;;;;;;31.81;42.17;99511.92;105396;1258;59978;-73
2023/08/26 10:40:09;;;;;;;8.90;6.40;;;;;;;31.68;42.37;99499.98;105365;1254;72160;-72
2023/08/26 10:42:37;;;;;;;12.90;7.70;;;;;;;31.57;42.62;99499.71;105456;1256;70093;-71
2023/08/26 10:45:12;;;;;;;8.90;6.80;;;;;;;31.42;42.88;99500.41;105328;1256;70382;-72
2023/08/26 10:47:40;;;;;;;11.60;7.20;;;;;;;31.15;43.09;99509.05;105451;1256;59775;-76
2023/08/26 10:50:15;;;;;;;7.20;6.60;;;;;;;30.86;43.14;99508.17;105437;1258;60565;-73
2023/08/26 10:52:42;;;;;;;8.30;7.10;;;;;;;30.53;43.87;99507.41;105453;1256;72189;-73
2023/08/26 10:55:30;;;;;;;8.80;7.20;;;;;;;30.28;44.52;99499.99;105273;1259;69242;-73
2023/08/26 10:58:16;;;;;;;7.90;7.10;;;;;;;30.11;45.10;99504.11;105328;1256;71271;-74
2023/08/26 11:00:48;;;;;;;9.00;7.40;;;;;;;29.94;45.10;99499.56;105493;1258;60289;-74
2023/08/26 11:03:20;;;;;;;8.90;7.90;;;;;;;29.83;45.89;99501.15;105526;1258;60031;-75
2023/08/26 11:06:00;;;;;;;8.60;7.80;;;;;;;29.78;46.66;99505.94;105525;1254;73048;-73
2023/08/26 11:08:28;;;;;;;10.60;7.50;;;;;;;29.74;46.96;99510.34;105168;1257;68623;-75
2023/08/26 11:10:55;;;;;;;8.90;7.20;;;;;;;29.71;46.72;99510.42;105130;1261;72780;-76
2023/08/26 11:13:22;;;;;;;9.90;6.70;;;;;;;29.67;45.87;99507.85;105342;1257;60053;-73
2023/08/26 11:15:50;;;;;;;8.30;7.20;;;;;;;29.61;45.81;99505.99;105338;1255;59715;-74
2023/08/26 11:18:19;;;;;;;8.80;7.30;;;;;;;29.55;45.63;99505.38;105386;1256;73086;-73
2023/08/26 11:20:47;;;;;;;9.30;6.90;;;;;;;29.56;45.79;99501.64;105541;1256;70418;-73
2023/08/26 11:23:14;;;;;;;7.80;6.80;;;;;;;29.69;45.96;99489.98;105316;1257;71442;-75
2023/08/26 11:25:42;;;;;;;11.80;7.40;;;;;;;29.93;45.60;99491.97;105243;1258;59670;-74
2023/08/26 11:28:14;;;;;;;10.20;6.40;;;;;;;30.20;45.39;99493.63;105003;1259;62586;-73
2023/08/26 11:30:42;;;;;;;9.60;6.80;;;;;;;30.42;43.88;99492.13;105311;1257;71760;-73